Hovedside
METAR-TAF:

METAR-TAF

Lufthavner :

Linköping, Sverige

Linköping lufthavn

breddegrad: 58-24N, lengdegrad: 015-41E, høyde over havet: 52 m

Gjeldene værobservasjon

Denne rapporten ble laget for 39 minutter siden, klokken 06:50 UTC
Vind 13 kt fra Vest
Temperatur 11°C
Luftfuktighet 58%
Trykk 1010 hPa
Sikt 10 km eller mer

METAR: ESSL 210650Z AUTO 28013KT 9999 NCD 11/03 Q1010

Tid: 09:29 (07:29 UTC)

Varsel

Denne rapporten ble laget for 3 timer og 59 minutter siden, klokken 03:30 UTC
Varsel gyldig fra 21. klokken 04 UTC til 21. klokken 06 UTC
Vind 13 kt fra Vest
Sikt 10 km eller mer
ingen skyer under 1500 m og ingen bygeskyer

TAF: ESSL 210330Z 2104/2106 28013KT CAVOK

Værobservasjoner og værvarsel for over 4000 flyplasser (METAR- og TAF-rapporter).

Tilgjengelige stasjoner er representert av de røde og gule prikkene på kartet.

Hold musepekeren over prikken for å se navnet på stasjonen.

Klikk så for å se værobservasjoner og -varsler.

For å forandre kartet kan du klikke på den grønne knappen med svart kryss for å zoome inn, på den grønne knappen med strek for å zoome ut, eller på de grønne pilene for å se tilstøtende kart.


METAR-TAF: